sensor_id;sensor_type;location;lat;lon;timestamp;P1;durP1;ratioP1;P2;durP2;ratioP2
14282;SDS011;7225;59.282;18.344;2023-04-01T00:01:21;1.37;;;1.10;;
14282;SDS011;7225;59.282;18.344;2023-04-01T00:03:48;1.60;;;1.20;;
14282;SDS011;7225;59.282;18.344;2023-04-01T00:06:17;1.23;;;0.93;;
14282;SDS011;7225;59.282;18.344;2023-04-01T00:08:45;1.67;;;1.20;;
14282;SDS011;7225;59.282;18.344;2023-04-01T00:11:12;1.43;;;0.97;;
14282;SDS011;7225;59.282;18.344;2023-04-01T00:13:41;1.60;;;1.00;;
14282;SDS011;7225;59.282;18.344;2023-04-01T00:16:08;1.40;;;1.10;;
14282;SDS011;7225;59.282;18.344;2023-04-01T00:18:47;1.47;;;1.27;;
14282;SDS011;7225;59.282;18.344;2023-04-01T00:21:16;2.53;;;1.00;;
14282;SDS011;7225;59.282;18.344;2023-04-01T00:23:44;1.73;;;0.97;;
14282;SDS011;7225;59.282;18.344;2023-04-01T00:26:11;1.37;;;0.90;;
14282;SDS011;7225;59.282;18.344;2023-04-01T00:28:40;1.67;;;1.40;;
14282;SDS011;7225;59.282;18.344;2023-04-01T00:31:08;1.70;;;1.10;;
14282;SDS011;7225;59.282;18.344;2023-04-01T00:33:37;1.73;;;1.20;;
14282;SDS011;7225;59.282;18.344;2023-04-01T00:36:26;1.80;;;1.10;;
14282;SDS011;7225;59.282;18.344;2023-04-01T00:38:52;3.67;;;1.50;;
14282;SDS011;7225;59.282;18.344;2023-04-01T00:41:19;2.07;;;1.27;;
14282;SDS011;7225;59.282;18.344;2023-04-01T00:43:48;1.67;;;1.57;;
14282;SDS011;7225;59.282;18.344;2023-04-01T00:46:17;2.20;;;1.30;;
14282;SDS011;7225;59.282;18.344;2023-04-01T00:48:51;2.97;;;1.50;;
14282;SDS011;7225;59.282;18.344;2023-04-01T00:51:22;2.53;;;1.20;;
14282;SDS011;7225;59.282;18.344;2023-04-01T00:53:54;2.10;;;1.13;;
14282;SDS011;7225;59.282;18.344;2023-04-01T00:56:27;3.13;;;1.40;;
14282;SDS011;7225;59.282;18.344;2023-04-01T00:59:02;2.33;;;1.23;;
14282;SDS011;7225;59.282;18.344;2023-04-01T01:01:34;1.23;;;1.10;;
14282;SDS011;7225;59.282;18.344;2023-04-01T01:04:02;2.93;;;1.17;;
14282;SDS011;7225;59.282;18.344;2023-04-01T01:09:14;1.33;;;1.07;;
14282;SDS011;7225;59.282;18.344;2023-04-01T01:12:30;2.23;;;1.17;;
14282;SDS011;7225;59.282;18.344;2023-04-01T01:15:26;0.90;;;0.90;;
14282;SDS011;7225;59.282;18.344;2023-04-01T01:25:41;1.57;;;1.00;;
14282;SDS011;7225;59.282;18.344;2023-04-01T01:28:15;3.10;;;1.13;;
14282;SDS011;7225;59.282;18.344;2023-04-01T01:30:56;1.67;;;0.90;;
14282;SDS011;7225;59.282;18.344;2023-04-01T01:36:31;2.90;;;0.90;;
14282;SDS011;7225;59.282;18.344;2023-04-01T01:39:02;1.93;;;1.17;;
14282;SDS011;7225;59.282;18.344;2023-04-01T01:41:31;2.10;;;0.93;;
14282;SDS011;7225;59.282;18.344;2023-04-01T01:44:01;1.17;;;1.00;;
14282;SDS011;7225;59.282;18.344;2023-04-01T01:46:32;2.30;;;1.20;;
14282;SDS011;7225;59.282;18.344;2023-04-01T01:48:59;0.97;;;0.80;;
14282;SDS011;7225;59.282;18.344;2023-04-01T01:51:28;1.27;;;0.90;;
14282;SDS011;7225;59.282;18.344;2023-04-01T01:53:55;1.43;;;0.90;;
14282;SDS011;7225;59.282;18.344;2023-04-01T01:56:23;0.73;;;0.73;;
14282;SDS011;7225;59.282;18.344;2023-04-01T01:58:55;1.17;;;0.93;;
14282;SDS011;7225;59.282;18.344;2023-04-01T02:01:29;1.30;;;0.80;;
14282;SDS011;7225;59.282;18.344;2023-04-01T02:03:59;1.10;;;0.73;;
14282;SDS011;7225;59.282;18.344;2023-04-01T02:06:28;1.27;;;0.80;;
14282;SDS011;7225;59.282;18.344;2023-04-01T02:09:04;2.43;;;1.00;;
14282;SDS011;7225;59.282;18.344;2023-04-01T02:11:35;3.00;;;1.30;;
14282;SDS011;7225;59.282;18.344;2023-04-01T02:14:19;1.43;;;1.00;;
14282;SDS011;7225;59.282;18.344;2023-04-01T02:16:59;2.13;;;1.23;;
14282;SDS011;7225;59.282;18.344;2023-04-01T02:19:36;0.77;;;0.77;;
14282;SDS011;7225;59.282;18.344;2023-04-01T02:22:11;1.10;;;1.00;;
14282;SDS011;7225;59.282;18.344;2023-04-01T02:24:42;1.27;;;0.87;;
14282;SDS011;7225;59.282;18.344;2023-04-01T02:27:11;2.00;;;0.70;;
14282;SDS011;7225;59.282;18.344;2023-04-01T02:29:39;1.63;;;1.00;;
14282;SDS011;7225;59.282;18.344;2023-04-01T02:32:06;1.40;;;0.70;;
14282;SDS011;7225;59.282;18.344;2023-04-01T02:34:34;2.10;;;1.10;;
14282;SDS011;7225;59.282;18.344;2023-04-01T02:37:02;1.80;;;1.00;;
14282;SDS011;7225;59.282;18.344;2023-04-01T02:39:29;1.27;;;1.00;;
14282;SDS011;7225;59.282;18.344;2023-04-01T02:41:56;1.60;;;1.00;;
14282;SDS011;7225;59.282;18.344;2023-04-01T02:44:23;1.57;;;0.90;;
14282;SDS011;7225;59.282;18.344;2023-04-01T02:46:50;2.83;;;0.90;;
14282;SDS011;7225;59.282;18.344;2023-04-01T02:49:18;2.50;;;0.97;;
14282;SDS011;7225;59.282;18.344;2023-04-01T02:51:44;1.63;;;0.90;;
14282;SDS011;7225;59.282;18.344;2023-04-01T02:54:12;3.47;;;0.97;;
14282;SDS011;7225;59.282;18.344;2023-04-01T02:56:39;2.33;;;1.33;;
14282;SDS011;7225;59.282;18.344;2023-04-01T02:59:06;1.00;;;0.90;;
14282;SDS011;7225;59.282;18.344;2023-04-01T03:01:33;3.50;;;1.70;;
14282;SDS011;7225;59.282;18.344;2023-04-01T03:04:00;2.63;;;1.10;;
14282;SDS011;7225;59.282;18.344;2023-04-01T03:06:27;4.23;;;1.00;;
14282;SDS011;7225;59.282;18.344;2023-04-01T03:08:54;3.70;;;1.03;;
14282;SDS011;7225;59.282;18.344;2023-04-01T03:11:21;2.60;;;1.00;;
14282;SDS011;7225;59.282;18.344;2023-04-01T03:13:48;2.70;;;0.80;;
14282;SDS011;7225;59.282;18.344;2023-04-01T03:16:15;2.50;;;1.43;;
14282;SDS011;7225;59.282;18.344;2023-04-01T03:18:42;2.17;;;0.70;;
14282;SDS011;7225;59.282;18.344;2023-04-01T03:21:14;1.10;;;0.80;;
14282;SDS011;7225;59.282;18.344;2023-04-01T03:23:43;1.73;;;0.90;;
14282;SDS011;7225;59.282;18.344;2023-04-01T03:26:11;3.17;;;0.90;;
14282;SDS011;7225;59.282;18.344;2023-04-01T03:28:39;2.20;;;0.87;;
14282;SDS011;7225;59.282;18.344;2023-04-01T03:31:06;1.37;;;0.90;;
14282;SDS011;7225;59.282;18.344;2023-04-01T03:33:33;1.30;;;0.80;;
14282;SDS011;7225;59.282;18.344;2023-04-01T03:36:00;1.03;;;0.87;;
14282;SDS011;7225;59.282;18.344;2023-04-01T03:38:27;1.20;;;0.90;;
14282;SDS011;7225;59.282;18.344;2023-04-01T03:40:54;2.33;;;1.20;;
14282;SDS011;7225;59.282;18.344;2023-04-01T03:43:21;1.43;;;0.90;;
14282;SDS011;7225;59.282;18.344;2023-04-01T03:45:49;1.83;;;1.03;;
14282;SDS011;7225;59.282;18.344;2023-04-01T03:48:17;2.63;;;1.17;;
14282;SDS011;7225;59.282;18.344;2023-04-01T03:50:44;2.63;;;0.90;;
14282;SDS011;7225;59.282;18.344;2023-04-01T03:53:11;1.13;;;0.70;;
14282;SDS011;7225;59.282;18.344;2023-04-01T03:55:38;3.43;;;1.27;;
14282;SDS011;7225;59.282;18.344;2023-04-01T03:58:06;2.13;;;0.90;;
14282;SDS011;7225;59.282;18.344;2023-04-01T04:00:33;3.17;;;0.80;;
14282;SDS011;7225;59.282;18.344;2023-04-01T04:03:00;2.40;;;0.87;;
14282;SDS011;7225;59.282;18.344;2023-04-01T04:05:28;1.20;;;0.70;;
14282;SDS011;7225;59.282;18.344;2023-04-01T04:07:55;1.83;;;0.80;;
14282;SDS011;7225;59.282;18.344;2023-04-01T04:10:22;3.43;;;0.87;;
14282;SDS011;7225;59.282;18.344;2023-04-01T04:12:51;2.97;;;0.87;;
14282;SDS011;7225;59.282;18.344;2023-04-01T04:15:18;1.30;;;1.10;;
14282;SDS011;7225;59.282;18.344;2023-04-01T04:17:46;1.83;;;0.90;;
14282;SDS011;7225;59.282;18.344;2023-04-01T04:20:13;0.97;;;0.77;;
14282;SDS011;7225;59.282;18.344;2023-04-01T04:22:40;0.67;;;0.60;;
14282;SDS011;7225;59.282;18.344;2023-04-01T04:25:07;2.40;;;0.70;;
14282;SDS011;7225;59.282;18.344;2023-04-01T04:27:35;2.93;;;1.00;;
14282;SDS011;7225;59.282;18.344;2023-04-01T04:30:02;1.10;;;0.90;;
14282;SDS011;7225;59.282;18.344;2023-04-01T04:32:31;2.57;;;1.03;;
14282;SDS011;7225;59.282;18.344;2023-04-01T04:34:58;2.47;;;0.70;;
14282;SDS011;7225;59.282;18.344;2023-04-01T04:37:25;1.73;;;1.00;;
14282;SDS011;7225;59.282;18.344;2023-04-01T04:39:52;2.33;;;0.90;;
14282;SDS011;7225;59.282;18.344;2023-04-01T04:42:19;1.30;;;0.70;;
14282;SDS011;7225;59.282;18.344;2023-04-01T04:44:46;2.00;;;0.60;;
14282;SDS011;7225;59.282;18.344;2023-04-01T04:47:13;1.30;;;0.70;;
14282;SDS011;7225;59.282;18.344;2023-04-01T04:49:40;1.73;;;0.83;;
14282;SDS011;7225;59.282;18.344;2023-04-01T04:52:07;1.97;;;0.87;;
14282;SDS011;7225;59.282;18.344;2023-04-01T04:54:34;2.00;;;0.57;;
14282;SDS011;7225;59.282;18.344;2023-04-01T04:57:01;0.90;;;0.80;;
14282;SDS011;7225;59.282;18.344;2023-04-01T04:59:28;1.27;;;0.73;;
14282;SDS011;7225;59.282;18.344;2023-04-01T05:01:55;0.90;;;0.70;;
14282;SDS011;7225;59.282;18.344;2023-04-01T05:04:22;1.80;;;0.80;;
14282;SDS011;7225;59.282;18.344;2023-04-01T05:06:49;2.57;;;0.90;;
14282;SDS011;7225;59.282;18.344;2023-04-01T05:09:18;3.23;;;0.80;;
14282;SDS011;7225;59.282;18.344;2023-04-01T05:11:45;0.80;;;0.80;;
14282;SDS011;7225;59.282;18.344;2023-04-01T05:14:15;1.67;;;0.60;;
14282;SDS011;7225;59.282;18.344;2023-04-01T05:16:42;2.00;;;0.70;;
14282;SDS011;7225;59.282;18.344;2023-04-01T05:19:09;1.50;;;0.60;;
14282;SDS011;7225;59.282;18.344;2023-04-01T05:21:36;5.73;;;1.30;;
14282;SDS011;7225;59.282;18.344;2023-04-01T05:24:03;2.83;;;1.00;;
14282;SDS011;7225;59.282;18.344;2023-04-01T05:26:35;2.13;;;1.00;;
14282;SDS011;7225;59.282;18.344;2023-04-01T05:29:03;3.87;;;0.70;;
14282;SDS011;7225;59.282;18.344;2023-04-01T05:31:31;3.00;;;1.23;;
14282;SDS011;7225;59.282;18.344;2023-04-01T05:33:58;2.07;;;0.90;;
14282;SDS011;7225;59.282;18.344;2023-04-01T05:36:25;4.00;;;0.80;;
14282;SDS011;7225;59.282;18.344;2023-04-01T05:38:54;2.80;;;0.93;;
14282;SDS011;7225;59.282;18.344;2023-04-01T05:41:22;1.20;;;0.90;;
14282;SDS011;7225;59.282;18.344;2023-04-01T05:43:49;3.87;;;1.30;;
14282;SDS011;7225;59.282;18.344;2023-04-01T05:46:16;3.17;;;1.63;;
14282;SDS011;7225;59.282;18.344;2023-04-01T05:48:43;4.87;;;3.23;;
14282;SDS011;7225;59.282;18.344;2023-04-01T05:51:14;2.93;;;2.27;;
14282;SDS011;7225;59.282;18.344;2023-04-01T05:53:42;5.20;;;2.03;;
14282;SDS011;7225;59.282;18.344;2023-04-01T05:56:09;2.97;;;2.30;;
14282;SDS011;7225;59.282;18.344;2023-04-01T05:58:36;3.37;;;1.40;;
14282;SDS011;7225;59.282;18.344;2023-04-01T06:01:05;1.17;;;1.00;;
14282;SDS011;7225;59.282;18.344;2023-04-01T06:03:39;3.60;;;1.03;;
14282;SDS011;7225;59.282;18.344;2023-04-01T06:06:25;2.60;;;0.97;;
14282;SDS011;7225;59.282;18.344;2023-04-01T06:08:54;3.10;;;1.07;;
14282;SDS011;7225;59.282;18.344;2023-04-01T06:14:27;2.00;;;0.83;;
14282;SDS011;7225;59.282;18.344;2023-04-01T06:24:57;1.67;;;1.40;;
14282;SDS011;7225;59.282;18.344;2023-04-01T06:46:52;0.93;;;0.70;;
14282;SDS011;7225;59.282;18.344;2023-04-01T06:54:49;2.50;;;0.90;;
14282;SDS011;7225;59.282;18.344;2023-04-01T07:00:13;0.70;;;0.50;;
14282;SDS011;7225;59.282;18.344;2023-04-01T07:02:50;1.30;;;0.70;;
14282;SDS011;7225;59.282;18.344;2023-04-01T07:05:39;2.27;;;0.57;;
14282;SDS011;7225;59.282;18.344;2023-04-01T07:08:08;0.67;;;0.60;;
14282;SDS011;7225;59.282;18.344;2023-04-01T07:10:43;1.23;;;0.50;;
14282;SDS011;7225;59.282;18.344;2023-04-01T07:13:14;3.97;;;1.00;;
14282;SDS011;7225;59.282;18.344;2023-04-01T07:15:55;2.37;;;1.60;;
14282;SDS011;7225;59.282;18.344;2023-04-01T07:18:37;2.43;;;0.97;;
14282;SDS011;7225;59.282;18.344;2023-04-01T07:21:55;3.23;;;1.13;;
14282;SDS011;7225;59.282;18.344;2023-04-01T07:24:29;1.60;;;0.73;;
14282;SDS011;7225;59.282;18.344;2023-04-01T07:26:58;1.20;;;0.90;;
14282;SDS011;7225;59.282;18.344;2023-04-01T07:29:25;1.60;;;0.90;;
14282;SDS011;7225;59.282;18.344;2023-04-01T07:32:05;0.90;;;0.60;;
14282;SDS011;7225;59.282;18.344;2023-04-01T07:45:22;0.63;;;0.37;;
14282;SDS011;7225;59.282;18.344;2023-04-01T07:50:41;1.97;;;0.60;;
14282;SDS011;7225;59.282;18.344;2023-04-01T07:53:49;3.07;;;0.60;;
14282;SDS011;7225;59.282;18.344;2023-04-01T08:07:42;1.37;;;0.70;;
14282;SDS011;7225;59.282;18.344;2023-04-01T08:21:35;3.67;;;0.60;;
14282;SDS011;7225;59.282;18.344;2023-04-01T08:24:19;0.97;;;0.40;;
14282;SDS011;7225;59.282;18.344;2023-04-01T08:27:17;2.27;;;0.40;;
14282;SDS011;7225;59.282;18.344;2023-04-01T08:30:02;1.00;;;0.40;;
14282;SDS011;7225;59.282;18.344;2023-04-01T08:32:37;1.00;;;0.50;;
14282;SDS011;7225;59.282;18.344;2023-04-01T08:35:29;0.67;;;0.40;;
14282;SDS011;7225;59.282;18.344;2023-04-01T08:38:10;1.53;;;0.63;;
14282;SDS011;7225;59.282;18.344;2023-04-01T08:40:57;1.17;;;0.50;;
14282;SDS011;7225;59.282;18.344;2023-04-01T09:00:40;2.93;;;0.60;;
14282;SDS011;7225;59.282;18.344;2023-04-01T09:14:42;1.70;;;0.50;;
14282;SDS011;7225;59.282;18.344;2023-04-01T09:27:56;1.97;;;0.60;;
14282;SDS011;7225;59.282;18.344;2023-04-01T09:39:30;4.30;;;1.00;;
14282;SDS011;7225;59.282;18.344;2023-04-01T09:44:36;0.97;;;0.30;;
14282;SDS011;7225;59.282;18.344;2023-04-01T10:06:51;1.40;;;0.40;;
14282;SDS011;7225;59.282;18.344;2023-04-01T10:15:50;0.90;;;0.20;;
14282;SDS011;7225;59.282;18.344;2023-04-01T10:33:11;1.13;;;0.40;;
14282;SDS011;7225;59.282;18.344;2023-04-01T11:19:24;1.23;;;0.10;;
14282;SDS011;7225;59.282;18.344;2023-04-01T11:33:23;0.60;;;0.13;;
14282;SDS011;7225;59.282;18.344;2023-04-01T11:39:00;0.80;;;0.20;;
14282;SDS011;7225;59.282;18.344;2023-04-01T11:44:19;0.43;;;0.20;;
14282;SDS011;7225;59.282;18.344;2023-04-01T11:50:17;1.10;;;0.40;;
14282;SDS011;7225;59.282;18.344;2023-04-01T12:01:13;0.50;;;0.30;;
14282;SDS011;7225;59.282;18.344;2023-04-01T12:04:14;0.63;;;0.20;;
14282;SDS011;7225;59.282;18.344;2023-04-01T12:20:56;0.77;;;0.20;;
14282;SDS011;7225;59.282;18.344;2023-04-01T12:31:56;0.83;;;0.20;;
14282;SDS011;7225;59.282;18.344;2023-04-01T12:59:30;0.40;;;0.20;;
14282;SDS011;7225;59.282;18.344;2023-04-01T13:05:21;0.87;;;0.20;;
14282;SDS011;7225;59.282;18.344;2023-04-01T13:08:08;0.20;;;0.07;;
14282;SDS011;7225;59.282;18.344;2023-04-01T13:10:50;0.53;;;0.27;;
14282;SDS011;7225;59.282;18.344;2023-04-01T13:16:11;1.03;;;0.23;;
14282;SDS011;7225;59.282;18.344;2023-04-01T13:19:03;0.93;;;0.20;;
14282;SDS011;7225;59.282;18.344;2023-04-01T13:24:28;0.40;;;0.10;;
14282;SDS011;7225;59.282;18.344;2023-04-01T13:29:52;1.00;;;0.27;;
14282;SDS011;7225;59.282;18.344;2023-04-01T13:40:53;0.43;;;0.13;;
14282;SDS011;7225;59.282;18.344;2023-04-01T13:43:31;0.53;;;0.23;;
14282;SDS011;7225;59.282;18.344;2023-04-01T13:46:37;0.67;;;0.20;;
14282;SDS011;7225;59.282;18.344;2023-04-01T14:05:44;0.67;;;0.17;;
14282;SDS011;7225;59.282;18.344;2023-04-01T14:27:04;2.00;;;0.50;;
14282;SDS011;7225;59.282;18.344;2023-04-01T14:35:41;0.90;;;0.27;;
14282;SDS011;7225;59.282;18.344;2023-04-01T14:49:43;1.27;;;0.57;;
14282;SDS011;7225;59.282;18.344;2023-04-01T14:52:27;1.43;;;0.50;;
14282;SDS011;7225;59.282;18.344;2023-04-01T14:54:58;0.63;;;0.30;;
14282;SDS011;7225;59.282;18.344;2023-04-01T14:57:28;0.63;;;0.30;;
14282;SDS011;7225;59.282;18.344;2023-04-01T15:16:45;1.03;;;0.33;;
14282;SDS011;7225;59.282;18.344;2023-04-01T15:22:07;1.60;;;0.50;;
14282;SDS011;7225;59.282;18.344;2023-04-01T15:25:48;1.87;;;0.43;;
14282;SDS011;7225;59.282;18.344;2023-04-01T15:28:11;1.10;;;0.47;;
14282;SDS011;7225;59.282;18.344;2023-04-01T15:33:36;0.70;;;0.30;;
14282;SDS011;7225;59.282;18.344;2023-04-01T15:36:41;0.93;;;0.20;;
14282;SDS011;7225;59.282;18.344;2023-04-01T15:42:43;0.60;;;0.30;;
14282;SDS011;7225;59.282;18.344;2023-04-01T15:47:52;1.33;;;0.43;;
14282;SDS011;7225;59.282;18.344;2023-04-01T15:50:32;1.83;;;0.47;;
14282;SDS011;7225;59.282;18.344;2023-04-01T15:53:46;1.17;;;0.40;;
14282;SDS011;7225;59.282;18.344;2023-04-01T16:01:56;1.77;;;0.50;;
14282;SDS011;7225;59.282;18.344;2023-04-01T16:04:50;2.03;;;0.40;;
14282;SDS011;7225;59.282;18.344;2023-04-01T16:10:23;0.60;;;0.30;;
14282;SDS011;7225;59.282;18.344;2023-04-01T16:16:00;0.97;;;0.60;;
14282;SDS011;7225;59.282;18.344;2023-04-01T16:26:54;4.10;;;1.27;;
14282;SDS011;7225;59.282;18.344;2023-04-01T16:29:36;2.07;;;0.63;;
14282;SDS011;7225;59.282;18.344;2023-04-01T16:32:29;3.13;;;0.80;;
14282;SDS011;7225;59.282;18.344;2023-04-01T16:35:01;2.20;;;0.67;;
14282;SDS011;7225;59.282;18.344;2023-04-01T16:37:41;0.73;;;0.30;;
14282;SDS011;7225;59.282;18.344;2023-04-01T16:40:33;1.77;;;0.40;;
14282;SDS011;7225;59.282;18.344;2023-04-01T16:46:49;0.73;;;0.40;;
14282;SDS011;7225;59.282;18.344;2023-04-01T16:51:45;1.33;;;0.50;;
14282;SDS011;7225;59.282;18.344;2023-04-01T16:54:14;1.23;;;0.60;;
14282;SDS011;7225;59.282;18.344;2023-04-01T16:57:02;2.67;;;0.93;;
14282;SDS011;7225;59.282;18.344;2023-04-01T17:02:23;2.77;;;0.70;;
14282;SDS011;7225;59.282;18.344;2023-04-01T17:05:11;2.27;;;0.67;;
14282;SDS011;7225;59.282;18.344;2023-04-01T17:10:50;3.20;;;2.00;;
14282;SDS011;7225;59.282;18.344;2023-04-01T17:21:05;2.83;;;1.30;;
14282;SDS011;7225;59.282;18.344;2023-04-01T17:23:43;3.73;;;1.37;;
14282;SDS011;7225;59.282;18.344;2023-04-01T17:26:23;4.97;;;1.70;;
14282;SDS011;7225;59.282;18.344;2023-04-01T17:29:20;2.20;;;1.17;;
14282;SDS011;7225;59.282;18.344;2023-04-01T17:35:06;6.37;;;2.47;;
14282;SDS011;7225;59.282;18.344;2023-04-01T17:37:53;5.40;;;2.37;;
14282;SDS011;7225;59.282;18.344;2023-04-01T17:43:40;4.20;;;2.30;;
14282;SDS011;7225;59.282;18.344;2023-04-01T17:49:42;2.13;;;1.20;;
14282;SDS011;7225;59.282;18.344;2023-04-01T18:17:25;4.67;;;1.87;;
14282;SDS011;7225;59.282;18.344;2023-04-01T18:26:29;6.10;;;2.90;;
14282;SDS011;7225;59.282;18.344;2023-04-01T18:37:39;2.57;;;1.47;;
14282;SDS011;7225;59.282;18.344;2023-04-01T18:40:15;3.77;;;1.67;;
14282;SDS011;7225;59.282;18.344;2023-04-01T18:42:53;10.33;;;3.10;;
14282;SDS011;7225;59.282;18.344;2023-04-01T18:45:40;4.37;;;1.30;;
14282;SDS011;7225;59.282;18.344;2023-04-01T18:48:27;5.27;;;1.63;;
14282;SDS011;7225;59.282;18.344;2023-04-01T18:51:17;4.07;;;1.40;;
14282;SDS011;7225;59.282;18.344;2023-04-01T18:54:00;3.53;;;1.20;;
14282;SDS011;7225;59.282;18.344;2023-04-01T18:56:37;3.10;;;1.27;;
14282;SDS011;7225;59.282;18.344;2023-04-01T19:07:19;3.33;;;1.20;;
14282;SDS011;7225;59.282;18.344;2023-04-01T19:09:53;4.33;;;1.30;;
14282;SDS011;7225;59.282;18.344;2023-04-01T19:12:38;3.63;;;1.43;;
14282;SDS011;7225;59.282;18.344;2023-04-01T19:18:21;4.03;;;1.00;;
14282;SDS011;7225;59.282;18.344;2023-04-01T19:21:16;3.83;;;1.20;;
14282;SDS011;7225;59.282;18.344;2023-04-01T19:32:01;3.10;;;1.23;;
14282;SDS011;7225;59.282;18.344;2023-04-01T19:37:22;2.43;;;1.10;;
14282;SDS011;7225;59.282;18.344;2023-04-01T19:43:21;3.53;;;1.37;;
14282;SDS011;7225;59.282;18.344;2023-04-01T19:45:51;5.97;;;1.57;;
14282;SDS011;7225;59.282;18.344;2023-04-01T19:51:35;5.77;;;1.40;;
14282;SDS011;7225;59.282;18.344;2023-04-01T19:54:12;4.27;;;1.20;;
14282;SDS011;7225;59.282;18.344;2023-04-01T20:02:45;4.67;;;1.20;;
14282;SDS011;7225;59.282;18.344;2023-04-01T20:05:35;5.13;;;1.23;;
14282;SDS011;7225;59.282;18.344;2023-04-01T20:16:03;6.67;;;1.30;;
14282;SDS011;7225;59.282;18.344;2023-04-01T20:23:52;7.43;;;1.70;;
14282;SDS011;7225;59.282;18.344;2023-04-01T20:26:31;5.20;;;1.50;;
14282;SDS011;7225;59.282;18.344;2023-04-01T20:34:45;5.10;;;1.17;;
14282;SDS011;7225;59.282;18.344;2023-04-01T20:37:30;6.20;;;1.33;;
14282;SDS011;7225;59.282;18.344;2023-04-01T20:50:49;3.87;;;1.20;;
14282;SDS011;7225;59.282;18.344;2023-04-01T20:56:13;7.10;;;1.30;;
14282;SDS011;7225;59.282;18.344;2023-04-01T20:59:02;9.53;;;1.53;;
14282;SDS011;7225;59.282;18.344;2023-04-01T21:07:15;2.87;;;1.13;;
14282;SDS011;7225;59.282;18.344;2023-04-01T21:15:16;2.43;;;1.47;;
14282;SDS011;7225;59.282;18.344;2023-04-01T21:26:33;3.10;;;1.10;;
14282;SDS011;7225;59.282;18.344;2023-04-01T21:35:17;5.80;;;1.37;;
14282;SDS011;7225;59.282;18.344;2023-04-01T21:40:50;6.20;;;1.53;;
14282;SDS011;7225;59.282;18.344;2023-04-01T22:00:38;5.27;;;1.00;;
14282;SDS011;7225;59.282;18.344;2023-04-01T22:11:42;3.83;;;1.27;;
14282;SDS011;7225;59.282;18.344;2023-04-01T22:25:24;4.23;;;1.13;;
14282;SDS011;7225;59.282;18.344;2023-04-01T22:28:00;6.10;;;1.00;;
14282;SDS011;7225;59.282;18.344;2023-04-01T22:30:40;6.60;;;1.00;;
14282;SDS011;7225;59.282;18.344;2023-04-01T22:33:14;3.23;;;1.17;;
14282;SDS011;7225;59.282;18.344;2023-04-01T22:36:04;6.23;;;1.53;;
14282;SDS011;7225;59.282;18.344;2023-04-01T22:41:28;7.40;;;1.27;;
14282;SDS011;7225;59.282;18.344;2023-04-01T22:44:17;8.60;;;1.87;;
14282;SDS011;7225;59.282;18.344;2023-04-01T22:47:01;9.63;;;1.73;;
14282;SDS011;7225;59.282;18.344;2023-04-01T22:49:35;3.13;;;0.97;;
14282;SDS011;7225;59.282;18.344;2023-04-01T22:54:54;4.50;;;1.20;;
14282;SDS011;7225;59.282;18.344;2023-04-01T23:03:00;5.57;;;1.17;;
14282;SDS011;7225;59.282;18.344;2023-04-01T23:05:52;2.43;;;1.10;;
14282;SDS011;7225;59.282;18.344;2023-04-01T23:11:08;2.43;;;0.90;;
14282;SDS011;7225;59.282;18.344;2023-04-01T23:13:41;4.27;;;1.10;;
14282;SDS011;7225;59.282;18.344;2023-04-01T23:16:32;4.20;;;1.17;;
14282;SDS011;7225;59.282;18.344;2023-04-01T23:19:18;7.93;;;1.00;;
14282;SDS011;7225;59.282;18.344;2023-04-01T23:21:49;4.07;;;0.83;;
14282;SDS011;7225;59.282;18.344;2023-04-01T23:29:26;5.53;;;1.43;;
14282;SDS011;7225;59.282;18.344;2023-04-01T23:32:01;7.77;;;1.57;;
14282;SDS011;7225;59.282;18.344;2023-04-01T23:34:33;4.57;;;1.00;;
14282;SDS011;7225;59.282;18.344;2023-04-01T23:37:05;5.80;;;1.60;;
14282;SDS011;7225;59.282;18.344;2023-04-01T23:39:41;4.40;;;1.10;;
14282;SDS011;7225;59.282;18.344;2023-04-01T23:42:23;4.77;;;1.40;;
14282;SDS011;7225;59.282;18.344;2023-04-01T23:44:57;2.60;;;1.20;;
14282;SDS011;7225;59.282;18.344;2023-04-01T23:47:29;4.97;;;1.17;;
14282;SDS011;7225;59.282;18.344;2023-04-01T23:50:12;3.87;;;1.23;;
14282;SDS011;7225;59.282;18.344;2023-04-01T23:52:48;2.93;;;1.30;;
14282;SDS011;7225;59.282;18.344;2023-04-01T23:55:27;4.40;;;1.33;;
